sensor_id;sensor_type;location;lat;lon;timestamp;P1;durP1;ratioP1;P2;durP2;ratioP2
1567;SDS011;777;47.156;8.326;2022-12-10T00:01:27;56.88;;;37.17;;
1567;SDS011;777;47.156;8.326;2022-12-10T00:03:55;63.65;;;39.30;;
1567;SDS011;777;47.156;8.326;2022-12-10T00:06:24;63.10;;;37.53;;
1567;SDS011;777;47.156;8.326;2022-12-10T00:08:53;63.58;;;38.50;;
1567;SDS011;777;47.156;8.326;2022-12-10T00:11:20;58.15;;;38.40;;
1567;SDS011;777;47.156;8.326;2022-12-10T00:13:48;58.35;;;37.15;;
1567;SDS011;777;47.156;8.326;2022-12-10T00:16:17;56.13;;;35.90;;
1567;SDS011;777;47.156;8.326;2022-12-10T00:18:47;59.83;;;36.88;;
1567;SDS011;777;47.156;8.326;2022-12-10T00:21:15;51.28;;;34.72;;
1567;SDS011;777;47.156;8.326;2022-12-10T00:23:46;51.92;;;34.60;;
1567;SDS011;777;47.156;8.326;2022-12-10T00:26:14;51.25;;;34.10;;
1567;SDS011;777;47.156;8.326;2022-12-10T00:28:43;52.28;;;34.33;;
1567;SDS011;777;47.156;8.326;2022-12-10T00:31:11;56.42;;;35.00;;
1567;SDS011;777;47.156;8.326;2022-12-10T00:33:40;50.88;;;33.80;;
1567;SDS011;777;47.156;8.326;2022-12-10T00:36:10;49.80;;;33.53;;
1567;SDS011;777;47.156;8.326;2022-12-10T00:38:39;52.15;;;34.33;;
1567;SDS011;777;47.156;8.326;2022-12-10T00:41:07;46.53;;;33.17;;
1567;SDS011;777;47.156;8.326;2022-12-10T00:43:34;47.38;;;32.05;;
1567;SDS011;777;47.156;8.326;2022-12-10T00:46:03;48.60;;;33.42;;
1567;SDS011;777;47.156;8.326;2022-12-10T00:48:30;48.15;;;32.60;;
1567;SDS011;777;47.156;8.326;2022-12-10T00:50:58;50.85;;;32.97;;
1567;SDS011;777;47.156;8.326;2022-12-10T00:53:28;48.28;;;32.17;;
1567;SDS011;777;47.156;8.326;2022-12-10T00:55:56;45.65;;;31.30;;
1567;SDS011;777;47.156;8.326;2022-12-10T00:58:26;46.28;;;32.20;;
1567;SDS011;777;47.156;8.326;2022-12-10T01:00:54;51.70;;;35.15;;
1567;SDS011;777;47.156;8.326;2022-12-10T01:03:32;48.65;;;33.08;;
1567;SDS011;777;47.156;8.326;2022-12-10T01:06:06;47.42;;;33.22;;
1567;SDS011;777;47.156;8.326;2022-12-10T01:08:39;47.50;;;32.97;;
1567;SDS011;777;47.156;8.326;2022-12-10T01:11:06;52.35;;;35.40;;
1567;SDS011;777;47.156;8.326;2022-12-10T01:13:34;49.53;;;34.13;;
1567;SDS011;777;47.156;8.326;2022-12-10T01:16:02;49.13;;;33.92;;
1567;SDS011;777;47.156;8.326;2022-12-10T01:18:30;47.58;;;33.60;;
1567;SDS011;777;47.156;8.326;2022-12-10T01:21:00;48.90;;;33.90;;
1567;SDS011;777;47.156;8.326;2022-12-10T01:23:28;47.42;;;33.53;;
1567;SDS011;777;47.156;8.326;2022-12-10T01:26:00;49.70;;;34.05;;
1567;SDS011;777;47.156;8.326;2022-12-10T01:28:29;49.55;;;34.67;;
1567;SDS011;777;47.156;8.326;2022-12-10T01:30:59;47.70;;;33.83;;
1567;SDS011;777;47.156;8.326;2022-12-10T01:33:28;48.47;;;33.95;;
1567;SDS011;777;47.156;8.326;2022-12-10T01:35:55;46.92;;;33.85;;
1567;SDS011;777;47.156;8.326;2022-12-10T01:38:22;47.38;;;33.00;;
1567;SDS011;777;47.156;8.326;2022-12-10T01:40:49;48.55;;;34.03;;
1567;SDS011;777;47.156;8.326;2022-12-10T01:43:18;50.25;;;34.78;;
1567;SDS011;777;47.156;8.326;2022-12-10T01:45:45;48.75;;;34.97;;
1567;SDS011;777;47.156;8.326;2022-12-10T01:48:12;45.28;;;33.22;;
1567;SDS011;777;47.156;8.326;2022-12-10T01:50:39;51.80;;;35.33;;
1567;SDS011;777;47.156;8.326;2022-12-10T01:53:06;45.53;;;32.58;;
1567;SDS011;777;47.156;8.326;2022-12-10T01:55:38;48.38;;;33.72;;
1567;SDS011;777;47.156;8.326;2022-12-10T01:58:12;53.88;;;35.97;;
1567;SDS011;777;47.156;8.326;2022-12-10T02:00:43;51.17;;;34.72;;
1567;SDS011;777;47.156;8.326;2022-12-10T02:03:17;51.45;;;36.38;;
1567;SDS011;777;47.156;8.326;2022-12-10T02:05:51;52.58;;;35.40;;
1567;SDS011;777;47.156;8.326;2022-12-10T02:08:25;48.72;;;34.30;;
1567;SDS011;777;47.156;8.326;2022-12-10T02:10:59;54.28;;;36.65;;
1567;SDS011;777;47.156;8.326;2022-12-10T02:13:35;48.92;;;34.47;;
1567;SDS011;777;47.156;8.326;2022-12-10T02:16:12;48.17;;;34.40;;
1567;SDS011;777;47.156;8.326;2022-12-10T02:18:43;51.08;;;34.40;;
1567;SDS011;777;47.156;8.326;2022-12-10T02:21:15;52.83;;;34.88;;
1567;SDS011;777;47.156;8.326;2022-12-10T02:23:46;50.08;;;33.55;;
1567;SDS011;777;47.156;8.326;2022-12-10T02:26:19;51.17;;;33.28;;
1567;SDS011;777;47.156;8.326;2022-12-10T02:28:53;50.72;;;34.50;;
1567;SDS011;777;47.156;8.326;2022-12-10T02:31:31;54.22;;;34.22;;
1567;SDS011;777;47.156;8.326;2022-12-10T02:34:01;56.20;;;34.42;;
1567;SDS011;777;47.156;8.326;2022-12-10T02:36:33;49.35;;;33.33;;
1567;SDS011;777;47.156;8.326;2022-12-10T02:39:05;51.97;;;34.13;;
1567;SDS011;777;47.156;8.326;2022-12-10T02:41:46;50.20;;;32.22;;
1567;SDS011;777;47.156;8.326;2022-12-10T02:44:18;49.10;;;34.05;;
1567;SDS011;777;47.156;8.326;2022-12-10T02:46:47;54.08;;;34.95;;
1567;SDS011;777;47.156;8.326;2022-12-10T02:49:18;48.67;;;32.05;;
1567;SDS011;777;47.156;8.326;2022-12-10T02:51:47;47.13;;;31.42;;
1567;SDS011;777;47.156;8.326;2022-12-10T02:57:04;46.88;;;32.25;;
1567;SDS011;777;47.156;8.326;2022-12-10T02:59:43;47.92;;;31.83;;
1567;SDS011;777;47.156;8.326;2022-12-10T03:02:16;46.90;;;31.30;;
1567;SDS011;777;47.156;8.326;2022-12-10T03:04:52;49.95;;;32.72;;
1567;SDS011;777;47.156;8.326;2022-12-10T03:07:25;46.83;;;31.63;;
1567;SDS011;777;47.156;8.326;2022-12-10T03:10:00;47.58;;;30.60;;
1567;SDS011;777;47.156;8.326;2022-12-10T03:12:33;47.47;;;30.95;;
1567;SDS011;777;47.156;8.326;2022-12-10T03:15:08;44.47;;;30.77;;
1567;SDS011;777;47.156;8.326;2022-12-10T03:17:37;46.92;;;31.42;;
1567;SDS011;777;47.156;8.326;2022-12-10T03:20:08;44.80;;;30.50;;
1567;SDS011;777;47.156;8.326;2022-12-10T03:22:39;45.10;;;30.33;;
1567;SDS011;777;47.156;8.326;2022-12-10T03:25:09;45.38;;;31.60;;
1567;SDS011;777;47.156;8.326;2022-12-10T03:27:39;43.42;;;30.55;;
1567;SDS011;777;47.156;8.326;2022-12-10T03:30:10;41.72;;;29.20;;
1567;SDS011;777;47.156;8.326;2022-12-10T03:32:37;45.38;;;30.40;;
1567;SDS011;777;47.156;8.326;2022-12-10T03:35:04;45.90;;;31.95;;
1567;SDS011;777;47.156;8.326;2022-12-10T03:37:33;45.70;;;31.75;;
1567;SDS011;777;47.156;8.326;2022-12-10T03:40:00;46.38;;;31.88;;
1567;SDS011;777;47.156;8.326;2022-12-10T03:42:29;44.75;;;30.23;;
1567;SDS011;777;47.156;8.326;2022-12-10T03:44:56;49.85;;;31.13;;
1567;SDS011;777;47.156;8.326;2022-12-10T03:47:25;44.13;;;30.00;;
1567;SDS011;777;47.156;8.326;2022-12-10T03:49:52;50.70;;;32.13;;
1567;SDS011;777;47.156;8.326;2022-12-10T03:52:19;49.08;;;32.03;;
1567;SDS011;777;47.156;8.326;2022-12-10T03:54:46;51.30;;;32.15;;
1567;SDS011;777;47.156;8.326;2022-12-10T03:57:13;51.35;;;33.00;;
1567;SDS011;777;47.156;8.326;2022-12-10T03:59:40;48.63;;;31.73;;
1567;SDS011;777;47.156;8.326;2022-12-10T04:02:07;47.50;;;30.95;;
1567;SDS011;777;47.156;8.326;2022-12-10T04:04:35;46.67;;;31.00;;
1567;SDS011;777;47.156;8.326;2022-12-10T04:07:02;47.33;;;30.38;;
1567;SDS011;777;47.156;8.326;2022-12-10T04:09:29;48.13;;;30.83;;
1567;SDS011;777;47.156;8.326;2022-12-10T04:11:56;46.95;;;31.38;;
1567;SDS011;777;47.156;8.326;2022-12-10T04:14:23;45.75;;;29.83;;
1567;SDS011;777;47.156;8.326;2022-12-10T04:17:09;45.55;;;29.90;;
1567;SDS011;777;47.156;8.326;2022-12-10T04:19:37;46.05;;;30.00;;
1567;SDS011;777;47.156;8.326;2022-12-10T04:22:04;41.67;;;28.60;;
1567;SDS011;777;47.156;8.326;2022-12-10T04:27:33;45.20;;;29.25;;
1567;SDS011;777;47.156;8.326;2022-12-10T04:30:04;45.72;;;30.20;;
1567;SDS011;777;47.156;8.326;2022-12-10T04:32:33;52.05;;;32.15;;
1567;SDS011;777;47.156;8.326;2022-12-10T04:35:02;49.72;;;32.50;;
1567;SDS011;777;47.156;8.326;2022-12-10T04:37:29;52.20;;;32.58;;
1567;SDS011;777;47.156;8.326;2022-12-10T04:39:56;49.38;;;31.52;;
1567;SDS011;777;47.156;8.326;2022-12-10T04:42:23;50.13;;;32.38;;
1567;SDS011;777;47.156;8.326;2022-12-10T04:44:50;51.97;;;32.53;;
1567;SDS011;777;47.156;8.326;2022-12-10T04:47:18;45.40;;;30.13;;
1567;SDS011;777;47.156;8.326;2022-12-10T04:49:45;45.88;;;29.77;;
1567;SDS011;777;47.156;8.326;2022-12-10T04:52:14;44.03;;;29.05;;
1567;SDS011;777;47.156;8.326;2022-12-10T04:54:42;45.25;;;30.23;;
1567;SDS011;777;47.156;8.326;2022-12-10T04:57:09;44.97;;;30.33;;
1567;SDS011;777;47.156;8.326;2022-12-10T04:59:37;41.97;;;28.90;;
1567;SDS011;777;47.156;8.326;2022-12-10T05:02:04;41.55;;;28.60;;
1567;SDS011;777;47.156;8.326;2022-12-10T05:04:31;38.92;;;27.65;;
1567;SDS011;777;47.156;8.326;2022-12-10T05:06:58;38.63;;;27.10;;
1567;SDS011;777;47.156;8.326;2022-12-10T05:09:27;34.08;;;26.40;;
1567;SDS011;777;47.156;8.326;2022-12-10T05:11:54;33.92;;;25.45;;
1567;SDS011;777;47.156;8.326;2022-12-10T05:14:21;33.67;;;25.50;;
1567;SDS011;777;47.156;8.326;2022-12-10T05:16:48;31.27;;;24.67;;
1567;SDS011;777;47.156;8.326;2022-12-10T05:19:16;30.00;;;23.23;;
1567;SDS011;777;47.156;8.326;2022-12-10T05:21:45;32.95;;;24.88;;
1567;SDS011;777;47.156;8.326;2022-12-10T05:24:31;31.35;;;24.77;;
1567;SDS011;777;47.156;8.326;2022-12-10T05:26:58;32.67;;;25.67;;
1567;SDS011;777;47.156;8.326;2022-12-10T05:29:25;31.15;;;24.08;;
1567;SDS011;777;47.156;8.326;2022-12-10T05:31:52;31.92;;;25.35;;
1567;SDS011;777;47.156;8.326;2022-12-10T05:34:19;32.38;;;25.13;;
1567;SDS011;777;47.156;8.326;2022-12-10T05:36:46;31.77;;;24.13;;
1567;SDS011;777;47.156;8.326;2022-12-10T05:39:13;32.53;;;24.20;;
1567;SDS011;777;47.156;8.326;2022-12-10T05:41:41;30.02;;;23.73;;
1567;SDS011;777;47.156;8.326;2022-12-10T05:44:10;32.45;;;23.85;;
1567;SDS011;777;47.156;8.326;2022-12-10T05:46:38;29.55;;;23.23;;
1567;SDS011;777;47.156;8.326;2022-12-10T05:49:05;31.30;;;23.48;;
1567;SDS011;777;47.156;8.326;2022-12-10T05:51:33;28.70;;;23.58;;
1567;SDS011;777;47.156;8.326;2022-12-10T05:54:03;30.80;;;24.60;;
1567;SDS011;777;47.156;8.326;2022-12-10T05:56:31;29.67;;;23.80;;
1567;SDS011;777;47.156;8.326;2022-12-10T05:59:00;29.52;;;23.50;;
1567;SDS011;777;47.156;8.326;2022-12-10T06:01:29;30.27;;;24.10;;
1567;SDS011;777;47.156;8.326;2022-12-10T06:03:58;29.70;;;22.83;;
1567;SDS011;777;47.156;8.326;2022-12-10T06:06:27;29.50;;;23.35;;
1567;SDS011;777;47.156;8.326;2022-12-10T06:08:55;27.33;;;22.63;;
1567;SDS011;777;47.156;8.326;2022-12-10T06:11:22;27.75;;;22.85;;
1567;SDS011;777;47.156;8.326;2022-12-10T06:13:51;25.08;;;21.92;;
1567;SDS011;777;47.156;8.326;2022-12-10T06:16:19;25.52;;;20.92;;
1567;SDS011;777;47.156;8.326;2022-12-10T06:18:47;26.98;;;22.65;;
1567;SDS011;777;47.156;8.326;2022-12-10T06:21:15;29.83;;;23.45;;
1567;SDS011;777;47.156;8.326;2022-12-10T06:23:43;29.98;;;23.65;;
1567;SDS011;777;47.156;8.326;2022-12-10T06:26:12;28.48;;;23.02;;
1567;SDS011;777;47.156;8.326;2022-12-10T06:28:40;29.55;;;23.42;;
1567;SDS011;777;47.156;8.326;2022-12-10T06:31:08;29.10;;;23.70;;
1567;SDS011;777;47.156;8.326;2022-12-10T06:33:36;31.80;;;25.02;;
1567;SDS011;777;47.156;8.326;2022-12-10T06:36:04;30.27;;;23.70;;
1567;SDS011;777;47.156;8.326;2022-12-10T06:38:32;32.30;;;24.20;;
1567;SDS011;777;47.156;8.326;2022-12-10T06:41:01;29.65;;;23.92;;
1567;SDS011;777;47.156;8.326;2022-12-10T06:43:31;30.63;;;24.15;;
1567;SDS011;777;47.156;8.326;2022-12-10T06:45:58;34.75;;;23.90;;
1567;SDS011;777;47.156;8.326;2022-12-10T06:48:26;45.42;;;26.80;;
1567;SDS011;777;47.156;8.326;2022-12-10T06:50:54;32.50;;;24.95;;
1567;SDS011;777;47.156;8.326;2022-12-10T06:53:21;31.35;;;25.02;;
1567;SDS011;777;47.156;8.326;2022-12-10T06:55:48;30.58;;;24.42;;
1567;SDS011;777;47.156;8.326;2022-12-10T06:58:16;32.17;;;24.58;;
1567;SDS011;777;47.156;8.326;2022-12-10T07:00:43;29.20;;;24.33;;
1567;SDS011;777;47.156;8.326;2022-12-10T07:03:10;32.08;;;24.98;;
1567;SDS011;777;47.156;8.326;2022-12-10T07:05:37;31.70;;;24.35;;
1567;SDS011;777;47.156;8.326;2022-12-10T07:08:05;31.27;;;24.90;;
1567;SDS011;777;47.156;8.326;2022-12-10T07:10:32;32.05;;;25.10;;
1567;SDS011;777;47.156;8.326;2022-12-10T07:12:59;32.42;;;25.38;;
1567;SDS011;777;47.156;8.326;2022-12-10T07:15:26;33.15;;;25.10;;
1567;SDS011;777;47.156;8.326;2022-12-10T07:17:53;33.20;;;25.02;;
1567;SDS011;777;47.156;8.326;2022-12-10T07:20:20;30.75;;;24.60;;
1567;SDS011;777;47.156;8.326;2022-12-10T07:22:47;28.45;;;23.48;;
1567;SDS011;777;47.156;8.326;2022-12-10T07:25:16;34.70;;;23.48;;
1567;SDS011;777;47.156;8.326;2022-12-10T07:27:43;31.25;;;24.38;;
1567;SDS011;777;47.156;8.326;2022-12-10T07:30:10;31.63;;;24.33;;
1567;SDS011;777;47.156;8.326;2022-12-10T07:32:38;30.63;;;24.70;;
1567;SDS011;777;47.156;8.326;2022-12-10T07:35:05;35.53;;;27.10;;
1567;SDS011;777;47.156;8.326;2022-12-10T07:37:32;36.20;;;26.25;;
1567;SDS011;777;47.156;8.326;2022-12-10T07:39:59;35.88;;;26.95;;
1567;SDS011;777;47.156;8.326;2022-12-10T07:42:28;36.97;;;27.65;;
1567;SDS011;777;47.156;8.326;2022-12-10T07:44:55;36.92;;;28.08;;
1567;SDS011;777;47.156;8.326;2022-12-10T07:47:22;38.88;;;29.08;;
1567;SDS011;777;47.156;8.326;2022-12-10T07:49:50;38.03;;;28.63;;
1567;SDS011;777;47.156;8.326;2022-12-10T07:52:17;37.28;;;27.20;;
1567;SDS011;777;47.156;8.326;2022-12-10T07:54:44;37.05;;;29.30;;
1567;SDS011;777;47.156;8.326;2022-12-10T07:57:11;36.40;;;27.30;;
1567;SDS011;777;47.156;8.326;2022-12-10T07:59:40;37.35;;;27.65;;
1567;SDS011;777;47.156;8.326;2022-12-10T08:02:07;35.13;;;27.05;;
1567;SDS011;777;47.156;8.326;2022-12-10T08:04:34;38.58;;;28.33;;
1567;SDS011;777;47.156;8.326;2022-12-10T08:07:02;35.90;;;27.55;;
1567;SDS011;777;47.156;8.326;2022-12-10T08:09:30;36.53;;;28.17;;
1567;SDS011;777;47.156;8.326;2022-12-10T08:11:57;36.00;;;27.90;;
1567;SDS011;777;47.156;8.326;2022-12-10T08:14:24;36.97;;;28.05;;
1567;SDS011;777;47.156;8.326;2022-12-10T08:16:52;36.20;;;27.38;;
1567;SDS011;777;47.156;8.326;2022-12-10T08:19:19;34.22;;;26.40;;
1567;SDS011;777;47.156;8.326;2022-12-10T08:21:46;33.55;;;26.48;;
1567;SDS011;777;47.156;8.326;2022-12-10T08:24:15;36.05;;;27.17;;
1567;SDS011;777;47.156;8.326;2022-12-10T08:26:42;34.45;;;26.25;;
1567;SDS011;777;47.156;8.326;2022-12-10T08:29:09;34.78;;;26.08;;
1567;SDS011;777;47.156;8.326;2022-12-10T08:31:36;32.67;;;25.33;;
1567;SDS011;777;47.156;8.326;2022-12-10T08:34:09;30.10;;;24.40;;
1567;SDS011;777;47.156;8.326;2022-12-10T08:36:38;29.45;;;22.90;;
1567;SDS011;777;47.156;8.326;2022-12-10T08:39:05;31.17;;;24.80;;
1567;SDS011;777;47.156;8.326;2022-12-10T08:41:32;30.15;;;24.45;;
1567;SDS011;777;47.156;8.326;2022-12-10T08:43:59;28.40;;;23.13;;
1567;SDS011;777;47.156;8.326;2022-12-10T08:46:26;30.42;;;23.30;;
1567;SDS011;777;47.156;8.326;2022-12-10T08:48:53;29.90;;;23.45;;
1567;SDS011;777;47.156;8.326;2022-12-10T08:51:22;28.40;;;23.08;;
1567;SDS011;777;47.156;8.326;2022-12-10T08:53:49;27.48;;;23.30;;
1567;SDS011;777;47.156;8.326;2022-12-10T08:56:16;29.40;;;23.98;;
1567;SDS011;777;47.156;8.326;2022-12-10T08:58:43;29.33;;;23.52;;
1567;SDS011;777;47.156;8.326;2022-12-10T09:01:11;30.40;;;23.80;;
1567;SDS011;777;47.156;8.326;2022-12-10T09:03:40;30.25;;;23.20;;
1567;SDS011;777;47.156;8.326;2022-12-10T09:06:07;29.17;;;23.92;;
1567;SDS011;777;47.156;8.326;2022-12-10T09:08:37;30.58;;;24.15;;
1567;SDS011;777;47.156;8.326;2022-12-10T09:11:05;30.20;;;24.83;;
1567;SDS011;777;47.156;8.326;2022-12-10T09:13:32;27.98;;;23.13;;
1567;SDS011;777;47.156;8.326;2022-12-10T09:15:59;28.33;;;22.75;;
1567;SDS011;777;47.156;8.326;2022-12-10T09:18:26;26.77;;;22.73;;
1567;SDS011;777;47.156;8.326;2022-12-10T09:20:53;25.65;;;21.25;;
1567;SDS011;777;47.156;8.326;2022-12-10T09:23:20;22.65;;;19.80;;
1567;SDS011;777;47.156;8.326;2022-12-10T09:25:49;22.00;;;19.50;;
1567;SDS011;777;47.156;8.326;2022-12-10T09:28:16;22.45;;;19.48;;
1567;SDS011;777;47.156;8.326;2022-12-10T09:30:43;20.85;;;17.80;;
1567;SDS011;777;47.156;8.326;2022-12-10T09:33:10;21.40;;;18.45;;
1567;SDS011;777;47.156;8.326;2022-12-10T09:35:39;20.35;;;17.83;;
1567;SDS011;777;47.156;8.326;2022-12-10T09:38:10;20.55;;;17.08;;
1567;SDS011;777;47.156;8.326;2022-12-10T09:40:39;18.35;;;16.42;;
1567;SDS011;777;47.156;8.326;2022-12-10T09:43:14;19.00;;;17.00;;
1567;SDS011;777;47.156;8.326;2022-12-10T09:45:51;18.05;;;16.15;;
1567;SDS011;777;47.156;8.326;2022-12-10T09:48:27;19.17;;;17.13;;
1567;SDS011;777;47.156;8.326;2022-12-10T09:51:00;19.95;;;17.60;;
1567;SDS011;777;47.156;8.326;2022-12-10T09:53:33;19.35;;;17.25;;
1567;SDS011;777;47.156;8.326;2022-12-10T09:56:02;17.50;;;15.65;;
1567;SDS011;777;47.156;8.326;2022-12-10T09:58:31;18.92;;;17.02;;
1567;SDS011;777;47.156;8.326;2022-12-10T10:01:00;18.70;;;16.80;;
1567;SDS011;777;47.156;8.326;2022-12-10T10:03:31;18.98;;;16.95;;
1567;SDS011;777;47.156;8.326;2022-12-10T10:06:01;19.23;;;17.13;;
1567;SDS011;777;47.156;8.326;2022-12-10T10:08:31;19.38;;;17.35;;
1567;SDS011;777;47.156;8.326;2022-12-10T10:11:01;18.80;;;16.40;;
1567;SDS011;777;47.156;8.326;2022-12-10T10:13:32;19.27;;;17.23;;
1567;SDS011;777;47.156;8.326;2022-12-10T10:18:50;19.83;;;17.00;;
1567;SDS011;777;47.156;8.326;2022-12-10T10:21:23;19.47;;;17.47;;
1567;SDS011;777;47.156;8.326;2022-12-10T10:23:52;19.08;;;16.52;;
1567;SDS011;777;47.156;8.326;2022-12-10T10:26:21;19.05;;;16.98;;
1567;SDS011;777;47.156;8.326;2022-12-10T10:28:54;18.88;;;16.90;;
1567;SDS011;777;47.156;8.326;2022-12-10T10:31:24;20.45;;;17.98;;
1567;SDS011;777;47.156;8.326;2022-12-10T10:33:54;19.08;;;16.77;;
1567;SDS011;777;47.156;8.326;2022-12-10T10:36:23;19.73;;;17.63;;
1567;SDS011;777;47.156;8.326;2022-12-10T10:38:53;18.83;;;16.63;;
1567;SDS011;777;47.156;8.326;2022-12-10T10:41:20;18.95;;;16.90;;
1567;SDS011;777;47.156;8.326;2022-12-10T10:43:49;19.60;;;17.50;;
1567;SDS011;777;47.156;8.326;2022-12-10T10:46:25;18.23;;;16.33;;
1567;SDS011;777;47.156;8.326;2022-12-10T10:48:53;19.08;;;16.88;;
1567;SDS011;777;47.156;8.326;2022-12-10T10:51:42;17.88;;;15.98;;
1567;SDS011;777;47.156;8.326;2022-12-10T10:54:10;17.63;;;15.73;;
1567;SDS011;777;47.156;8.326;2022-12-10T10:56:38;17.52;;;15.38;;
1567;SDS011;777;47.156;8.326;2022-12-10T10:59:17;17.15;;;15.30;;
1567;SDS011;777;47.156;8.326;2022-12-10T11:01:56;17.85;;;15.20;;
1567;SDS011;777;47.156;8.326;2022-12-10T11:04:28;16.67;;;14.95;;
1567;SDS011;777;47.156;8.326;2022-12-10T11:09:31;17.45;;;14.93;;
1567;SDS011;777;47.156;8.326;2022-12-10T11:12:00;16.65;;;14.38;;
1567;SDS011;777;47.156;8.326;2022-12-10T11:14:31;16.23;;;14.40;;
1567;SDS011;777;47.156;8.326;2022-12-10T11:17:03;16.48;;;14.77;;
1567;SDS011;777;47.156;8.326;2022-12-10T11:19:44;16.45;;;14.20;;
1567;SDS011;777;47.156;8.326;2022-12-10T11:22:21;16.75;;;14.48;;
1567;SDS011;777;47.156;8.326;2022-12-10T11:24:49;17.02;;;15.05;;
1567;SDS011;777;47.156;8.326;2022-12-10T11:27:18;17.25;;;14.43;;
1567;SDS011;777;47.156;8.326;2022-12-10T11:30:11;16.92;;;14.10;;
1567;SDS011;777;47.156;8.326;2022-12-10T11:32:48;16.58;;;14.35;;
1567;SDS011;777;47.156;8.326;2022-12-10T11:38:05;15.07;;;13.40;;
1567;SDS011;777;47.156;8.326;2022-12-10T11:40:42;15.65;;;14.02;;
1567;SDS011;777;47.156;8.326;2022-12-10T11:43:21;17.33;;;14.50;;
1567;SDS011;777;47.156;8.326;2022-12-10T11:46:07;17.10;;;14.23;;
1567;SDS011;777;47.156;8.326;2022-12-10T11:48:51;16.00;;;13.93;;
1567;SDS011;777;47.156;8.326;2022-12-10T11:51:30;16.40;;;14.07;;
1567;SDS011;777;47.156;8.326;2022-12-10T11:54:20;15.95;;;14.10;;
1567;SDS011;777;47.156;8.326;2022-12-10T11:57:02;16.98;;;14.48;;
1567;SDS011;777;47.156;8.326;2022-12-10T11:59:34;16.87;;;14.87;;
1567;SDS011;777;47.156;8.326;2022-12-10T12:02:19;16.27;;;14.55;;
1567;SDS011;777;47.156;8.326;2022-12-10T12:05:00;16.83;;;14.32;;
1567;SDS011;777;47.156;8.326;2022-12-10T12:07:45;16.25;;;14.45;;
1567;SDS011;777;47.156;8.326;2022-12-10T12:10:23;18.10;;;15.27;;
1567;SDS011;777;47.156;8.326;2022-12-10T12:13:15;17.58;;;15.50;;
1567;SDS011;777;47.156;8.326;2022-12-10T12:15:45;20.23;;;16.80;;
1567;SDS011;777;47.156;8.326;2022-12-10T12:18:18;19.48;;;16.17;;
1567;SDS011;777;47.156;8.326;2022-12-10T12:20:49;20.33;;;16.47;;
1567;SDS011;777;47.156;8.326;2022-12-10T12:23:22;21.67;;;17.50;;
1567;SDS011;777;47.156;8.326;2022-12-10T12:25:54;21.58;;;17.20;;
1567;SDS011;777;47.156;8.326;2022-12-10T12:28:25;22.15;;;18.65;;
1567;SDS011;777;47.156;8.326;2022-12-10T12:30:58;24.73;;;19.20;;
1567;SDS011;777;47.156;8.326;2022-12-10T12:33:32;25.13;;;19.88;;
1567;SDS011;777;47.156;8.326;2022-12-10T12:36:06;24.33;;;19.23;;
1567;SDS011;777;47.156;8.326;2022-12-10T12:38:39;24.50;;;20.00;;
1567;SDS011;777;47.156;8.326;2022-12-10T12:41:13;27.45;;;21.17;;
1567;SDS011;777;47.156;8.326;2022-12-10T12:43:44;27.55;;;21.15;;
1567;SDS011;777;47.156;8.326;2022-12-10T12:46:16;27.02;;;21.30;;
1567;SDS011;777;47.156;8.326;2022-12-10T12:48:50;30.30;;;21.98;;
1567;SDS011;777;47.156;8.326;2022-12-10T12:51:23;31.20;;;23.52;;
1567;SDS011;777;47.156;8.326;2022-12-10T12:53:54;31.17;;;22.40;;
1567;SDS011;777;47.156;8.326;2022-12-10T12:56:23;31.48;;;23.80;;
1567;SDS011;777;47.156;8.326;2022-12-10T12:59:03;31.48;;;23.83;;
1567;SDS011;777;47.156;8.326;2022-12-10T13:01:37;33.92;;;24.77;;
1567;SDS011;777;47.156;8.326;2022-12-10T13:04:10;33.00;;;24.52;;
1567;SDS011;777;47.156;8.326;2022-12-10T13:06:38;33.42;;;24.85;;
1567;SDS011;777;47.156;8.326;2022-12-10T13:09:17;31.75;;;24.30;;
1567;SDS011;777;47.156;8.326;2022-12-10T13:15:01;31.13;;;23.83;;
1567;SDS011;777;47.156;8.326;2022-12-10T13:17:39;33.15;;;24.92;;
1567;SDS011;777;47.156;8.326;2022-12-10T13:20:35;34.35;;;24.58;;
1567;SDS011;777;47.156;8.326;2022-12-10T13:23:29;32.97;;;24.38;;
1567;SDS011;777;47.156;8.326;2022-12-10T13:25:59;36.85;;;25.63;;
1567;SDS011;777;47.156;8.326;2022-12-10T13:28:38;33.58;;;24.98;;
1567;SDS011;777;47.156;8.326;2022-12-10T13:31:19;33.50;;;24.42;;
1567;SDS011;777;47.156;8.326;2022-12-10T13:37:05;32.72;;;25.40;;
1567;SDS011;777;47.156;8.326;2022-12-10T13:39:50;34.17;;;25.48;;
1567;SDS011;777;47.156;8.326;2022-12-10T13:42:27;33.20;;;24.80;;
1567;SDS011;777;47.156;8.326;2022-12-10T13:45:23;37.78;;;26.35;;
1567;SDS011;777;47.156;8.326;2022-12-10T13:50:43;35.45;;;24.70;;
1567;SDS011;777;47.156;8.326;2022-12-10T13:53:19;34.90;;;25.65;;
1567;SDS011;777;47.156;8.326;2022-12-10T13:55:53;33.67;;;25.30;;
1567;SDS011;777;47.156;8.326;2022-12-10T13:58:32;38.25;;;27.10;;
1567;SDS011;777;47.156;8.326;2022-12-10T14:01:10;36.03;;;26.42;;
1567;SDS011;777;47.156;8.326;2022-12-10T14:04:02;35.33;;;25.73;;
1567;SDS011;777;47.156;8.326;2022-12-10T14:06:52;33.63;;;24.88;;
1567;SDS011;777;47.156;8.326;2022-12-10T14:09:21;32.05;;;23.88;;
1567;SDS011;777;47.156;8.326;2022-12-10T14:11:52;30.83;;;23.42;;
1567;SDS011;777;47.156;8.326;2022-12-10T14:14:24;28.45;;;22.80;;
1567;SDS011;777;47.156;8.326;2022-12-10T14:16:59;31.27;;;23.88;;
1567;SDS011;777;47.156;8.326;2022-12-10T14:19:27;30.85;;;22.88;;
1567;SDS011;777;47.156;8.326;2022-12-10T14:21:55;28.20;;;21.75;;
1567;SDS011;777;47.156;8.326;2022-12-10T14:24:29;28.23;;;22.00;;
1567;SDS011;777;47.156;8.326;2022-12-10T14:27:00;26.55;;;20.30;;
1567;SDS011;777;47.156;8.326;2022-12-10T14:29:30;29.17;;;21.98;;
1567;SDS011;777;47.156;8.326;2022-12-10T14:31:57;27.08;;;21.35;;
1567;SDS011;777;47.156;8.326;2022-12-10T14:34:26;27.10;;;21.40;;
1567;SDS011;777;47.156;8.326;2022-12-10T14:36:55;26.00;;;21.67;;
1567;SDS011;777;47.156;8.326;2022-12-10T14:39:25;25.40;;;20.23;;
1567;SDS011;777;47.156;8.326;2022-12-10T14:41:56;25.27;;;20.02;;
1567;SDS011;777;47.156;8.326;2022-12-10T14:44:25;22.85;;;18.25;;
1567;SDS011;777;47.156;8.326;2022-12-10T14:47:02;24.27;;;19.38;;
1567;SDS011;777;47.156;8.326;2022-12-10T14:49:31;24.52;;;19.25;;
1567;SDS011;777;47.156;8.326;2022-12-10T14:51:58;25.83;;;19.65;;
1567;SDS011;777;47.156;8.326;2022-12-10T14:54:27;24.58;;;19.30;;
1567;SDS011;777;47.156;8.326;2022-12-10T14:56:58;24.27;;;18.83;;
1567;SDS011;777;47.156;8.326;2022-12-10T14:59:29;25.20;;;19.58;;
1567;SDS011;777;47.156;8.326;2022-12-10T15:02:04;24.77;;;19.50;;
1567;SDS011;777;47.156;8.326;2022-12-10T15:04:39;22.40;;;18.58;;
1567;SDS011;777;47.156;8.326;2022-12-10T15:07:11;22.35;;;18.35;;
1567;SDS011;777;47.156;8.326;2022-12-10T15:09:41;23.30;;;19.13;;
1567;SDS011;777;47.156;8.326;2022-12-10T15:12:18;23.58;;;18.73;;
1567;SDS011;777;47.156;8.326;2022-12-10T15:14:50;24.73;;;19.35;;
1567;SDS011;777;47.156;8.326;2022-12-10T15:17:36;23.00;;;18.52;;
1567;SDS011;777;47.156;8.326;2022-12-10T15:20:19;23.35;;;18.85;;
1567;SDS011;777;47.156;8.326;2022-12-10T15:22:48;23.05;;;18.40;;
1567;SDS011;777;47.156;8.326;2022-12-10T15:25:22;23.95;;;18.65;;
1567;SDS011;777;47.156;8.326;2022-12-10T15:27:54;24.10;;;19.10;;
1567;SDS011;777;47.156;8.326;2022-12-10T15:30:23;25.30;;;19.80;;
1567;SDS011;777;47.156;8.326;2022-12-10T15:32:58;24.83;;;19.95;;
1567;SDS011;777;47.156;8.326;2022-12-10T15:35:25;24.45;;;18.70;;
1567;SDS011;777;47.156;8.326;2022-12-10T15:37:52;24.58;;;19.52;;
1567;SDS011;777;47.156;8.326;2022-12-10T15:40:22;24.50;;;18.70;;
1567;SDS011;777;47.156;8.326;2022-12-10T15:42:50;21.98;;;17.48;;
1567;SDS011;777;47.156;8.326;2022-12-10T15:45:20;21.58;;;17.20;;